sensor_id;sensor_type;location;lat;lon;timestamp;temperature;humidity
17296;DHT22;8766;51.480;6.872;2022-09-23T00:00:12;12.90;62.60
17296;DHT22;8766;51.480;6.872;2022-09-23T00:02:39;12.90;62.50
17296;DHT22;8766;51.480;6.872;2022-09-23T00:05:08;12.90;62.50
17296;DHT22;8766;51.480;6.872;2022-09-23T00:07:36;12.90;62.50
17296;DHT22;8766;51.480;6.872;2022-09-23T00:10:03;12.90;62.40
17296;DHT22;8766;51.480;6.872;2022-09-23T00:12:32;12.90;62.40
17296;DHT22;8766;51.480;6.872;2022-09-23T00:14:59;13.00;62.40
17296;DHT22;8766;51.480;6.872;2022-09-23T00:17:26;13.00;62.30
17296;DHT22;8766;51.480;6.872;2022-09-23T00:19:53;13.00;62.20
17296;DHT22;8766;51.480;6.872;2022-09-23T00:22:20;13.00;62.10
17296;DHT22;8766;51.480;6.872;2022-09-23T00:24:47;13.10;62.20
17296;DHT22;8766;51.480;6.872;2022-09-23T00:27:14;13.10;62.10
17296;DHT22;8766;51.480;6.872;2022-09-23T00:29:43;13.10;62.00
17296;DHT22;8766;51.480;6.872;2022-09-23T00:32:10;13.10;62.00
17296;DHT22;8766;51.480;6.872;2022-09-23T00:34:37;13.10;61.90
17296;DHT22;8766;51.480;6.872;2022-09-23T00:37:04;13.10;61.90
17296;DHT22;8766;51.480;6.872;2022-09-23T00:39:31;13.20;61.90
17296;DHT22;8766;51.480;6.872;2022-09-23T00:41:58;13.20;61.90
17296;DHT22;8766;51.480;6.872;2022-09-23T00:44:41;13.20;61.80
17296;DHT22;8766;51.480;6.872;2022-09-23T00:47:14;13.20;61.80
17296;DHT22;8766;51.480;6.872;2022-09-23T00:49:44;13.20;61.80
17296;DHT22;8766;51.480;6.872;2022-09-23T00:52:13;13.20;61.80
17296;DHT22;8766;51.480;6.872;2022-09-23T00:54:42;13.20;61.80
17296;DHT22;8766;51.480;6.872;2022-09-23T00:57:11;13.20;61.80
17296;DHT22;8766;51.480;6.872;2022-09-23T00:59:39;13.20;61.70
17296;DHT22;8766;51.480;6.872;2022-09-23T01:02:07;13.20;61.70
17296;DHT22;8766;51.480;6.872;2022-09-23T01:04:36;13.20;61.70
17296;DHT22;8766;51.480;6.872;2022-09-23T01:07:03;13.20;61.70
17296;DHT22;8766;51.480;6.872;2022-09-23T01:09:30;13.20;61.70
17296;DHT22;8766;51.480;6.872;2022-09-23T01:12:07;13.20;61.60
17296;DHT22;8766;51.480;6.872;2022-09-23T01:14:44;13.20;61.60
17296;DHT22;8766;51.480;6.872;2022-09-23T01:17:17;13.20;61.60
17296;DHT22;8766;51.480;6.872;2022-09-23T01:20:13;13.20;61.60
17296;DHT22;8766;51.480;6.872;2022-09-23T01:22:47;13.20;61.70
17296;DHT22;8766;51.480;6.872;2022-09-23T01:25:37;13.20;61.70
17296;DHT22;8766;51.480;6.872;2022-09-23T01:28:19;13.20;61.70
17296;DHT22;8766;51.480;6.872;2022-09-23T01:30:55;13.10;61.70
17296;DHT22;8766;51.480;6.872;2022-09-23T01:33:28;13.10;61.70
17296;DHT22;8766;51.480;6.872;2022-09-23T01:36:07;13.10;61.80
17296;DHT22;8766;51.480;6.872;2022-09-23T01:38:40;13.10;61.70
17296;DHT22;8766;51.480;6.872;2022-09-23T01:41:30;13.10;61.80
17296;DHT22;8766;51.480;6.872;2022-09-23T01:44:04;13.10;61.80
17296;DHT22;8766;51.480;6.872;2022-09-23T01:46:36;13.10;61.80
17296;DHT22;8766;51.480;6.872;2022-09-23T01:49:10;13.10;61.80
17296;DHT22;8766;51.480;6.872;2022-09-23T01:51:41;13.10;61.80
17296;DHT22;8766;51.480;6.872;2022-09-23T01:54:13;13.10;61.90
17296;DHT22;8766;51.480;6.872;2022-09-23T01:56:44;13.00;61.80
17296;DHT22;8766;51.480;6.872;2022-09-23T01:59:17;13.00;61.80
17296;DHT22;8766;51.480;6.872;2022-09-23T02:01:51;13.00;61.80
17296;DHT22;8766;51.480;6.872;2022-09-23T02:04:23;13.00;61.90
17296;DHT22;8766;51.480;6.872;2022-09-23T02:06:55;13.00;61.90
17296;DHT22;8766;51.480;6.872;2022-09-23T02:09:26;13.00;61.90
17296;DHT22;8766;51.480;6.872;2022-09-23T02:11:59;13.00;61.80
17296;DHT22;8766;51.480;6.872;2022-09-23T02:14:32;13.00;61.90
17296;DHT22;8766;51.480;6.872;2022-09-23T02:17:08;13.00;61.90
17296;DHT22;8766;51.480;6.872;2022-09-23T02:19:41;13.00;61.90
17296;DHT22;8766;51.480;6.872;2022-09-23T02:22:14;13.00;62.00
17296;DHT22;8766;51.480;6.872;2022-09-23T02:24:42;12.90;61.90
17296;DHT22;8766;51.480;6.872;2022-09-23T02:27:16;12.90;61.90
17296;DHT22;8766;51.480;6.872;2022-09-23T02:29:50;12.90;62.00
17296;DHT22;8766;51.480;6.872;2022-09-23T02:32:22;12.90;62.00
17296;DHT22;8766;51.480;6.872;2022-09-23T02:34:57;12.90;62.00
17296;DHT22;8766;51.480;6.872;2022-09-23T02:37:30;12.90;62.10
17296;DHT22;8766;51.480;6.872;2022-09-23T02:40:10;12.80;62.10
17296;DHT22;8766;51.480;6.872;2022-09-23T02:42:47;12.80;62.10
17296;DHT22;8766;51.480;6.872;2022-09-23T02:45:15;12.80;62.10
17296;DHT22;8766;51.480;6.872;2022-09-23T02:47:48;12.80;62.20
17296;DHT22;8766;51.480;6.872;2022-09-23T02:50:17;12.80;62.20
17296;DHT22;8766;51.480;6.872;2022-09-23T02:52:44;12.80;62.20
17296;DHT22;8766;51.480;6.872;2022-09-23T02:55:14;12.80;62.20
17296;DHT22;8766;51.480;6.872;2022-09-23T02:57:42;12.80;62.20
17296;DHT22;8766;51.480;6.872;2022-09-23T03:00:10;12.80;62.20
17296;DHT22;8766;51.480;6.872;2022-09-23T03:02:58;12.80;62.20
17296;DHT22;8766;51.480;6.872;2022-09-23T03:05:36;12.80;62.10
17296;DHT22;8766;51.480;6.872;2022-09-23T03:08:22;12.80;62.10
17296;DHT22;8766;51.480;6.872;2022-09-23T03:10:57;12.80;62.10
17296;DHT22;8766;51.480;6.872;2022-09-23T03:13:32;12.80;62.10
17296;DHT22;8766;51.480;6.872;2022-09-23T03:16:08;12.80;62.00
17296;DHT22;8766;51.480;6.872;2022-09-23T03:18:41;12.80;62.70
17296;DHT22;8766;51.480;6.872;2022-09-23T03:21:13;12.80;62.00
17296;DHT22;8766;51.480;6.872;2022-09-23T03:23:42;12.80;62.00
17296;DHT22;8766;51.480;6.872;2022-09-23T03:26:16;12.80;62.10
17296;DHT22;8766;51.480;6.872;2022-09-23T03:28:45;12.80;62.10
17296;DHT22;8766;51.480;6.872;2022-09-23T03:31:13;12.80;62.10
17296;DHT22;8766;51.480;6.872;2022-09-23T03:33:45;12.70;62.10
17296;DHT22;8766;51.480;6.872;2022-09-23T03:36:16;12.70;62.10
17296;DHT22;8766;51.480;6.872;2022-09-23T03:39:05;12.70;62.20
17296;DHT22;8766;51.480;6.872;2022-09-23T03:41:37;12.70;62.20
17296;DHT22;8766;51.480;6.872;2022-09-23T03:44:05;12.70;62.20
17296;DHT22;8766;51.480;6.872;2022-09-23T03:46:33;12.70;62.20
17296;DHT22;8766;51.480;6.872;2022-09-23T03:49:08;12.70;62.20
17296;DHT22;8766;51.480;6.872;2022-09-23T03:51:36;12.70;62.40
17296;DHT22;8766;51.480;6.872;2022-09-23T03:54:03;12.60;63.00
17296;DHT22;8766;51.480;6.872;2022-09-23T03:56:30;12.60;62.30
17296;DHT22;8766;51.480;6.872;2022-09-23T03:58:57;12.60;62.40
17296;DHT22;8766;51.480;6.872;2022-09-23T04:01:24;12.60;62.50
17296;DHT22;8766;51.480;6.872;2022-09-23T04:03:51;12.60;62.50
17296;DHT22;8766;51.480;6.872;2022-09-23T04:06:20;12.60;62.50
17296;DHT22;8766;51.480;6.872;2022-09-23T04:08:47;12.50;62.50
17296;DHT22;8766;51.480;6.872;2022-09-23T04:11:14;12.50;62.50
17296;DHT22;8766;51.480;6.872;2022-09-23T04:13:41;12.50;62.50
17296;DHT22;8766;51.480;6.872;2022-09-23T04:16:08;12.50;62.60
17296;DHT22;8766;51.480;6.872;2022-09-23T04:18:35;12.50;62.60
17296;DHT22;8766;51.480;6.872;2022-09-23T04:21:02;12.40;62.70
17296;DHT22;8766;51.480;6.872;2022-09-23T04:23:30;12.40;62.70
17296;DHT22;8766;51.480;6.872;2022-09-23T04:25:57;12.40;62.80
17296;DHT22;8766;51.480;6.872;2022-09-23T04:28:24;12.40;62.80
17296;DHT22;8766;51.480;6.872;2022-09-23T04:30:51;12.40;62.90
17296;DHT22;8766;51.480;6.872;2022-09-23T04:33:19;12.30;62.90
17296;DHT22;8766;51.480;6.872;2022-09-23T04:35:49;12.30;63.00
17296;DHT22;8766;51.480;6.872;2022-09-23T04:38:17;12.30;63.00
17296;DHT22;8766;51.480;6.872;2022-09-23T04:40:45;12.30;63.00
17296;DHT22;8766;51.480;6.872;2022-09-23T04:43:12;12.30;63.00
17296;DHT22;8766;51.480;6.872;2022-09-23T04:45:40;12.30;63.00
17296;DHT22;8766;51.480;6.872;2022-09-23T04:48:07;12.30;63.00
17296;DHT22;8766;51.480;6.872;2022-09-23T04:50:35;12.30;63.00
17296;DHT22;8766;51.480;6.872;2022-09-23T04:53:02;12.30;63.00
17296;DHT22;8766;51.480;6.872;2022-09-23T04:55:30;12.30;62.90
17296;DHT22;8766;51.480;6.872;2022-09-23T04:57:58;12.20;62.80
17296;DHT22;8766;51.480;6.872;2022-09-23T05:00:25;12.30;62.80
17296;DHT22;8766;51.480;6.872;2022-09-23T05:02:53;12.30;62.80
17296;DHT22;8766;51.480;6.872;2022-09-23T05:05:20;12.30;62.80
17296;DHT22;8766;51.480;6.872;2022-09-23T05:07:49;12.30;62.80
17296;DHT22;8766;51.480;6.872;2022-09-23T05:10:16;12.30;63.40
17296;DHT22;8766;51.480;6.872;2022-09-23T05:12:43;12.30;62.70
17296;DHT22;8766;51.480;6.872;2022-09-23T05:15:12;12.40;62.80
17296;DHT22;8766;51.480;6.872;2022-09-23T05:17:40;12.30;62.70
17296;DHT22;8766;51.480;6.872;2022-09-23T05:20:08;12.30;62.70
17296;DHT22;8766;51.480;6.872;2022-09-23T05:22:36;12.30;62.70
17296;DHT22;8766;51.480;6.872;2022-09-23T05:25:03;12.30;62.70
17296;DHT22;8766;51.480;6.872;2022-09-23T05:27:30;12.30;62.70
17296;DHT22;8766;51.480;6.872;2022-09-23T05:29:57;12.30;63.40
17296;DHT22;8766;51.480;6.872;2022-09-23T05:32:26;12.30;62.70
17296;DHT22;8766;51.480;6.872;2022-09-23T05:34:53;12.30;62.70
17296;DHT22;8766;51.480;6.872;2022-09-23T05:37:20;12.40;62.70
17296;DHT22;8766;51.480;6.872;2022-09-23T05:39:47;12.40;62.60
17296;DHT22;8766;51.480;6.872;2022-09-23T05:42:15;12.40;62.60
17296;DHT22;8766;51.480;6.872;2022-09-23T05:44:43;12.40;62.50
17296;DHT22;8766;51.480;6.872;2022-09-23T05:47:11;12.40;62.40
17296;DHT22;8766;51.480;6.872;2022-09-23T05:49:40;12.50;62.30
17296;DHT22;8766;51.480;6.872;2022-09-23T05:52:07;12.50;62.20
17296;DHT22;8766;51.480;6.872;2022-09-23T05:54:34;12.60;62.10
17296;DHT22;8766;51.480;6.872;2022-09-23T05:57:00;12.70;61.90
17296;DHT22;8766;51.480;6.872;2022-09-23T05:59:28;12.70;61.80
17296;DHT22;8766;51.480;6.872;2022-09-23T06:01:54;12.80;61.60
17296;DHT22;8766;51.480;6.872;2022-09-23T06:04:21;12.90;61.60
17296;DHT22;8766;51.480;6.872;2022-09-23T06:06:50;12.90;61.40
17296;DHT22;8766;51.480;6.872;2022-09-23T06:09:17;13.00;61.30
17296;DHT22;8766;51.480;6.872;2022-09-23T06:11:44;13.00;61.10
17296;DHT22;8766;51.480;6.872;2022-09-23T06:14:12;13.10;61.10
17296;DHT22;8766;51.480;6.872;2022-09-23T06:16:39;13.20;61.00
17296;DHT22;8766;51.480;6.872;2022-09-23T06:19:07;13.30;61.40
17296;DHT22;8766;51.480;6.872;2022-09-23T06:21:36;13.40;60.60
17296;DHT22;8766;51.480;6.872;2022-09-23T06:24:05;13.50;60.30
17296;DHT22;8766;51.480;6.872;2022-09-23T06:26:33;13.70;59.90
17296;DHT22;8766;51.480;6.872;2022-09-23T06:29:01;13.90;59.60
17296;DHT22;8766;51.480;6.872;2022-09-23T06:31:28;14.00;59.30
17296;DHT22;8766;51.480;6.872;2022-09-23T06:33:55;14.20;59.10
17296;DHT22;8766;51.480;6.872;2022-09-23T06:36:22;14.40;58.90
17296;DHT22;8766;51.480;6.872;2022-09-23T06:38:49;14.50;58.70
17296;DHT22;8766;51.480;6.872;2022-09-23T06:41:17;14.60;58.40
17296;DHT22;8766;51.480;6.872;2022-09-23T06:43:46;14.70;58.20
17296;DHT22;8766;51.480;6.872;2022-09-23T06:46:15;14.90;58.10
17296;DHT22;8766;51.480;6.872;2022-09-23T06:48:42;15.00;57.90
17296;DHT22;8766;51.480;6.872;2022-09-23T06:51:11;15.10;57.70
17296;DHT22;8766;51.480;6.872;2022-09-23T06:53:44;15.20;57.60
17296;DHT22;8766;51.480;6.872;2022-09-23T06:56:11;15.30;57.40
17296;DHT22;8766;51.480;6.872;2022-09-23T06:58:40;15.40;57.30
17296;DHT22;8766;51.480;6.872;2022-09-23T07:01:09;15.40;57.20
17296;DHT22;8766;51.480;6.872;2022-09-23T07:03:37;15.50;57.20
17296;DHT22;8766;51.480;6.872;2022-09-23T07:06:05;15.60;57.10
17296;DHT22;8766;51.480;6.872;2022-09-23T07:08:33;15.60;57.00
17296;DHT22;8766;51.480;6.872;2022-09-23T07:11:02;15.70;57.00
17296;DHT22;8766;51.480;6.872;2022-09-23T07:13:30;15.70;57.00
17296;DHT22;8766;51.480;6.872;2022-09-23T07:16:00;15.70;57.00
17296;DHT22;8766;51.480;6.872;2022-09-23T07:18:28;15.70;57.00
17296;DHT22;8766;51.480;6.872;2022-09-23T07:20:56;15.80;57.00
17296;DHT22;8766;51.480;6.872;2022-09-23T07:23:23;16.00;56.70
17296;DHT22;8766;51.480;6.872;2022-09-23T07:25:50;16.30;56.20
17296;DHT22;8766;51.480;6.872;2022-09-23T07:28:18;16.60;55.70
17296;DHT22;8766;51.480;6.872;2022-09-23T07:30:45;17.00;55.20
17296;DHT22;8766;51.480;6.872;2022-09-23T07:33:14;17.10;54.90
17296;DHT22;8766;51.480;6.872;2022-09-23T07:35:41;17.10;54.90
17296;DHT22;8766;51.480;6.872;2022-09-23T07:38:09;17.20;54.90
17296;DHT22;8766;51.480;6.872;2022-09-23T07:40:37;17.30;54.70
17296;DHT22;8766;51.480;6.872;2022-09-23T07:43:04;17.30;54.70
17296;DHT22;8766;51.480;6.872;2022-09-23T07:45:31;17.30;54.80
17296;DHT22;8766;51.480;6.872;2022-09-23T07:47:58;17.20;55.00
17296;DHT22;8766;51.480;6.872;2022-09-23T07:50:27;17.20;55.10
17296;DHT22;8766;51.480;6.872;2022-09-23T07:52:57;17.10;55.20
17296;DHT22;8766;51.480;6.872;2022-09-23T07:55:24;17.10;55.40
17296;DHT22;8766;51.480;6.872;2022-09-23T07:57:51;17.00;55.50
17296;DHT22;8766;51.480;6.872;2022-09-23T08:00:18;16.90;55.70
17296;DHT22;8766;51.480;6.872;2022-09-23T08:02:45;16.80;55.80
17296;DHT22;8766;51.480;6.872;2022-09-23T08:05:12;16.70;56.00
17296;DHT22;8766;51.480;6.872;2022-09-23T08:07:40;16.70;56.10
17296;DHT22;8766;51.480;6.872;2022-09-23T08:10:07;16.60;56.20
17296;DHT22;8766;51.480;6.872;2022-09-23T08:12:34;16.60;56.30
17296;DHT22;8766;51.480;6.872;2022-09-23T08:15:02;16.50;56.40
17296;DHT22;8766;51.480;6.872;2022-09-23T08:17:29;16.50;56.50
17296;DHT22;8766;51.480;6.872;2022-09-23T08:19:56;16.50;56.60
17296;DHT22;8766;51.480;6.872;2022-09-23T08:22:23;16.40;56.60
17296;DHT22;8766;51.480;6.872;2022-09-23T08:24:51;16.40;56.60
17296;DHT22;8766;51.480;6.872;2022-09-23T08:27:18;16.40;56.60
17296;DHT22;8766;51.480;6.872;2022-09-23T08:29:45;16.50;56.50
17296;DHT22;8766;51.480;6.872;2022-09-23T08:32:12;16.50;56.40
17296;DHT22;8766;51.480;6.872;2022-09-23T08:34:39;16.70;56.30
17296;DHT22;8766;51.480;6.872;2022-09-23T08:37:08;16.70;56.00
17296;DHT22;8766;51.480;6.872;2022-09-23T08:39:35;16.90;56.00
17296;DHT22;8766;51.480;6.872;2022-09-23T08:42:13;16.90;55.70
17296;DHT22;8766;51.480;6.872;2022-09-23T08:44:46;17.10;55.60
17296;DHT22;8766;51.480;6.872;2022-09-23T08:47:18;17.20;55.90
17296;DHT22;8766;51.480;6.872;2022-09-23T08:49:53;17.30;55.20
17296;DHT22;8766;51.480;6.872;2022-09-23T08:52:27;17.30;55.20
17296;DHT22;8766;51.480;6.872;2022-09-23T08:54:55;17.30;55.20
17296;DHT22;8766;51.480;6.872;2022-09-23T08:57:32;17.30;55.20
17296;DHT22;8766;51.480;6.872;2022-09-23T09:00:04;17.20;55.30
17296;DHT22;8766;51.480;6.872;2022-09-23T09:02:32;17.20;55.40
17296;DHT22;8766;51.480;6.872;2022-09-23T09:05:02;17.20;55.50
17296;DHT22;8766;51.480;6.872;2022-09-23T09:07:33;17.10;55.50
17296;DHT22;8766;51.480;6.872;2022-09-23T09:10:04;17.20;55.60
17296;DHT22;8766;51.480;6.872;2022-09-23T09:12:38;17.30;55.50
17296;DHT22;8766;51.480;6.872;2022-09-23T09:15:11;17.40;55.30
17296;DHT22;8766;51.480;6.872;2022-09-23T09:17:44;17.60;54.90
17296;DHT22;8766;51.480;6.872;2022-09-23T09:20:21;17.90;54.50
17296;DHT22;8766;51.480;6.872;2022-09-23T09:22:53;18.20;54.00
17296;DHT22;8766;51.480;6.872;2022-09-23T09:25:37;18.60;53.40
17296;DHT22;8766;51.480;6.872;2022-09-23T09:28:13;19.00;52.80
17296;DHT22;8766;51.480;6.872;2022-09-23T09:30:42;19.40;52.00
17296;DHT22;8766;51.480;6.872;2022-09-23T09:33:13;19.90;51.20
17296;DHT22;8766;51.480;6.872;2022-09-23T09:35:55;20.30;50.50
17296;DHT22;8766;51.480;6.872;2022-09-23T09:38:25;20.50;50.10
17296;DHT22;8766;51.480;6.872;2022-09-23T09:40:54;20.50;50.10
17296;DHT22;8766;51.480;6.872;2022-09-23T09:43:28;20.40;50.30
17296;DHT22;8766;51.480;6.872;2022-09-23T09:46:02;20.30;50.60
17296;DHT22;8766;51.480;6.872;2022-09-23T09:48:37;20.10;50.90
17296;DHT22;8766;51.480;6.872;2022-09-23T09:51:18;20.00;51.30
17296;DHT22;8766;51.480;6.872;2022-09-23T09:53:46;19.90;51.60
17296;DHT22;8766;51.480;6.872;2022-09-23T09:56:14;19.80;51.80
17296;DHT22;8766;51.480;6.872;2022-09-23T09:58:46;19.70;51.90
17296;DHT22;8766;51.480;6.872;2022-09-23T10:01:19;19.60;52.10
17296;DHT22;8766;51.480;6.872;2022-09-23T10:03:46;19.60;52.30
17296;DHT22;8766;51.480;6.872;2022-09-23T10:06:20;19.60;52.40
17296;DHT22;8766;51.480;6.872;2022-09-23T10:09:13;19.50;52.50
17296;DHT22;8766;51.480;6.872;2022-09-23T10:11:42;19.50;52.60
17296;DHT22;8766;51.480;6.872;2022-09-23T10:14:28;19.60;52.60
17296;DHT22;8766;51.480;6.872;2022-09-23T10:17:01;19.60;52.50
17296;DHT22;8766;51.480;6.872;2022-09-23T10:19:30;19.60;52.50
17296;DHT22;8766;51.480;6.872;2022-09-23T10:21:58;19.60;52.50
17296;DHT22;8766;51.480;6.872;2022-09-23T10:24:31;19.60;52.50
17296;DHT22;8766;51.480;6.872;2022-09-23T10:27:02;19.60;52.50
17296;DHT22;8766;51.480;6.872;2022-09-23T10:29:37;19.70;52.50
17296;DHT22;8766;51.480;6.872;2022-09-23T10:32:23;19.70;52.60
17296;DHT22;8766;51.480;6.872;2022-09-23T10:34:54;19.60;52.60
17296;DHT22;8766;51.480;6.872;2022-09-23T10:37:29;19.60;52.70
17296;DHT22;8766;51.480;6.872;2022-09-23T10:39:56;19.60;52.80
17296;DHT22;8766;51.480;6.872;2022-09-23T10:43:12;19.60;52.80
17296;DHT22;8766;51.480;6.872;2022-09-23T10:46:04;19.60;52.80
17296;DHT22;8766;51.480;6.872;2022-09-23T10:48:57;19.60;52.70
17296;DHT22;8766;51.480;6.872;2022-09-23T10:51:33;19.60;52.70
17296;DHT22;8766;51.480;6.872;2022-09-23T10:54:09;19.60;52.70
17296;DHT22;8766;51.480;6.872;2022-09-23T10:56:45;19.60;52.70
17296;DHT22;8766;51.480;6.872;2022-09-23T10:59:39;19.60;52.70
17296;DHT22;8766;51.480;6.872;2022-09-23T11:02:30;19.60;52.90
17296;DHT22;8766;51.480;6.872;2022-09-23T11:08:04;19.60;52.90
17296;DHT22;8766;51.480;6.872;2022-09-23T11:10:57;19.60;52.80
17296;DHT22;8766;51.480;6.872;2022-09-23T11:13:40;19.60;52.90
17296;DHT22;8766;51.480;6.872;2022-09-23T11:16:16;19.60;52.90
17296;DHT22;8766;51.480;6.872;2022-09-23T11:19:10;19.60;52.90
17296;DHT22;8766;51.480;6.872;2022-09-23T11:21:59;19.60;52.90
17296;DHT22;8766;51.480;6.872;2022-09-23T11:24:48;19.60;52.90
17296;DHT22;8766;51.480;6.872;2022-09-23T11:27:27;19.60;52.90
17296;DHT22;8766;51.480;6.872;2022-09-23T11:30:08;19.70;52.80
17296;DHT22;8766;51.480;6.872;2022-09-23T11:35:35;19.80;52.70
17296;DHT22;8766;51.480;6.872;2022-09-23T11:38:09;19.80;52.60
17296;DHT22;8766;51.480;6.872;2022-09-23T11:40:37;19.80;52.60
17296;DHT22;8766;51.480;6.872;2022-09-23T11:43:14;19.70;52.70
17296;DHT22;8766;51.480;6.872;2022-09-23T11:45:50;19.70;52.80
17296;DHT22;8766;51.480;6.872;2022-09-23T11:48:23;19.70;52.90
17296;DHT22;8766;51.480;6.872;2022-09-23T11:50:55;19.60;52.90
17296;DHT22;8766;51.480;6.872;2022-09-23T11:53:38;19.70;52.90
17296;DHT22;8766;51.480;6.872;2022-09-23T11:56:11;19.70;52.80
17296;DHT22;8766;51.480;6.872;2022-09-23T11:58:43;19.70;52.80
17296;DHT22;8766;51.480;6.872;2022-09-23T12:01:16;19.80;52.80
17296;DHT22;8766;51.480;6.872;2022-09-23T12:03:50;19.80;52.70
17296;DHT22;8766;51.480;6.872;2022-09-23T12:06:21;19.80;52.70
17296;DHT22;8766;51.480;6.872;2022-09-23T12:08:54;19.90;52.60
17296;DHT22;8766;51.480;6.872;2022-09-23T12:11:28;20.00;52.50
17296;DHT22;8766;51.480;6.872;2022-09-23T12:14:08;20.00;52.30
17296;DHT22;8766;51.480;6.872;2022-09-23T12:17:05;20.20;52.30
17296;DHT22;8766;51.480;6.872;2022-09-23T12:20:02;20.20;52.20
17296;DHT22;8766;51.480;6.872;2022-09-23T12:22:42;20.20;52.70
17296;DHT22;8766;51.480;6.872;2022-09-23T12:25:32;20.30;52.10
17296;DHT22;8766;51.480;6.872;2022-09-23T12:28:03;20.30;52.10
17296;DHT22;8766;51.480;6.872;2022-09-23T12:30:32;20.30;52.60
17296;DHT22;8766;51.480;6.872;2022-09-23T12:33:21;20.30;52.00
17296;DHT22;8766;51.480;6.872;2022-09-23T12:35:50;20.30;52.00
17296;DHT22;8766;51.480;6.872;2022-09-23T12:38:23;20.40;52.10
17296;DHT22;8766;51.480;6.872;2022-09-23T12:40:52;20.40;52.00
17296;DHT22;8766;51.480;6.872;2022-09-23T12:43:27;20.40;52.10
17296;DHT22;8766;51.480;6.872;2022-09-23T12:46:16;20.30;52.10
17296;DHT22;8766;51.480;6.872;2022-09-23T12:48:56;20.30;52.30
17296;DHT22;8766;51.480;6.872;2022-09-23T12:51:26;20.20;52.40
17296;DHT22;8766;51.480;6.872;2022-09-23T12:57:03;20.10;52.60
17296;DHT22;8766;51.480;6.872;2022-09-23T13:02:30;20.00;52.80
17296;DHT22;8766;51.480;6.872;2022-09-23T13:05:18;19.90;52.80
17296;DHT22;8766;51.480;6.872;2022-09-23T13:08:06;19.90;52.90
17296;DHT22;8766;51.480;6.872;2022-09-23T13:10:40;19.90;52.90
17296;DHT22;8766;51.480;6.872;2022-09-23T13:13:18;19.90;52.90
17296;DHT22;8766;51.480;6.872;2022-09-23T13:15:46;19.90;52.90
17296;DHT22;8766;51.480;6.872;2022-09-23T13:18:29;19.90;52.80
17296;DHT22;8766;51.480;6.872;2022-09-23T13:21:17;19.90;52.90
17296;DHT22;8766;51.480;6.872;2022-09-23T13:24:16;19.90;52.90
17296;DHT22;8766;51.480;6.872;2022-09-23T13:26:44;19.80;52.90
17296;DHT22;8766;51.480;6.872;2022-09-23T13:29:18;19.90;53.00
17296;DHT22;8766;51.480;6.872;2022-09-23T13:31:48;19.80;53.00
17296;DHT22;8766;51.480;6.872;2022-09-23T13:34:19;19.80;53.30
17296;DHT22;8766;51.480;6.872;2022-09-23T13:36:48;19.80;53.10
17296;DHT22;8766;51.480;6.872;2022-09-23T13:39:19;19.80;53.10
17296;DHT22;8766;51.480;6.872;2022-09-23T13:41:48;19.80;53.10
17296;DHT22;8766;51.480;6.872;2022-09-23T13:44:18;19.90;53.10
17296;DHT22;8766;51.480;6.872;2022-09-23T13:46:46;19.80;53.00
17296;DHT22;8766;51.480;6.872;2022-09-23T13:49:21;19.90;53.00
17296;DHT22;8766;51.480;6.872;2022-09-23T13:51:51;19.90;53.00
17296;DHT22;8766;51.480;6.872;2022-09-23T13:54:29;19.90;52.90
17296;DHT22;8766;51.480;6.872;2022-09-23T13:56:58;20.00;52.90
17296;DHT22;8766;51.480;6.872;2022-09-23T13:59:27;20.00;52.80
17296;DHT22;8766;51.480;6.872;2022-09-23T14:02:04;20.00;52.90
17296;DHT22;8766;51.480;6.872;2022-09-23T14:04:32;20.00;52.90
17296;DHT22;8766;51.480;6.872;2022-09-23T14:07:01;20.00;52.90
17296;DHT22;8766;51.480;6.872;2022-09-23T14:09:29;19.90;52.90
17296;DHT22;8766;51.480;6.872;2022-09-23T14:11:58;19.90;53.00
17296;DHT22;8766;51.480;6.872;2022-09-23T14:14:26;19.90;53.00
17296;DHT22;8766;51.480;6.872;2022-09-23T14:16:55;19.90;53.00
17296;DHT22;8766;51.480;6.872;2022-09-23T14:19:23;19.90;53.10
17296;DHT22;8766;51.480;6.872;2022-09-23T14:21:52;19.90;53.10
17296;DHT22;8766;51.480;6.872;2022-09-23T14:24:22;19.90;53.20
17296;DHT22;8766;51.480;6.872;2022-09-23T14:26:53;19.90;53.20
17296;DHT22;8766;51.480;6.872;2022-09-23T14:29:25;19.80;53.20
17296;DHT22;8766;51.480;6.872;2022-09-23T14:31:54;19.80;53.30
17296;DHT22;8766;51.480;6.872;2022-09-23T14:34:41;19.80;53.30
17296;DHT22;8766;51.480;6.872;2022-09-23T14:37:20;19.80;53.40
17296;DHT22;8766;51.480;6.872;2022-09-23T14:40:12;19.70;53.40
17296;DHT22;8766;51.480;6.872;2022-09-23T14:42:43;19.60;53.50
17296;DHT22;8766;51.480;6.872;2022-09-23T14:45:14;19.60;53.60
17296;DHT22;8766;51.480;6.872;2022-09-23T14:47:45;19.60;53.70
17296;DHT22;8766;51.480;6.872;2022-09-23T14:50:19;19.60;53.70
17296;DHT22;8766;51.480;6.872;2022-09-23T14:53:30;19.50;53.70
17296;DHT22;8766;51.480;6.872;2022-09-23T14:56:11;19.50;53.70
17296;DHT22;8766;51.480;6.872;2022-09-23T14:58:44;19.50;53.80
17296;DHT22;8766;51.480;6.872;2022-09-23T15:01:33;19.50;53.80
17296;DHT22;8766;51.480;6.872;2022-09-23T15:04:13;19.50;53.80
17296;DHT22;8766;51.480;6.872;2022-09-23T15:06:44;19.50;53.90
17296;DHT22;8766;51.480;6.872;2022-09-23T15:09:19;19.40;53.90
17296;DHT22;8766;51.480;6.872;2022-09-23T15:11:51;19.40;53.90
17296;DHT22;8766;51.480;6.872;2022-09-23T15:14:19;19.40;54.00
17296;DHT22;8766;51.480;6.872;2022-09-23T15:16:46;19.30;54.00
17296;DHT22;8766;51.480;6.872;2022-09-23T15:19:16;19.30;54.10
17296;DHT22;8766;51.480;6.872;2022-09-23T15:21:45;19.30;54.20
17296;DHT22;8766;51.480;6.872;2022-09-23T15:24:31;19.20;54.20
17296;DHT22;8766;51.480;6.872;2022-09-23T15:27:00;19.20;54.40
17296;DHT22;8766;51.480;6.872;2022-09-23T15:29:28;19.10;54.40
17296;DHT22;8766;51.480;6.872;2022-09-23T15:31:57;19.10;54.40
17296;DHT22;8766;51.480;6.872;2022-09-23T15:34:24;19.10;54.50
17296;DHT22;8766;51.480;6.872;2022-09-23T15:36:51;19.00;54.50
17296;DHT22;8766;51.480;6.872;2022-09-23T15:39:19;19.00;54.60
17296;DHT22;8766;51.480;6.872;2022-09-23T15:41:46;19.00;54.70
17296;DHT22;8766;51.480;6.872;2022-09-23T15:44:18;18.90;54.70
17296;DHT22;8766;51.480;6.872;2022-09-23T15:46:48;18.90;54.80
17296;DHT22;8766;51.480;6.872;2022-09-23T15:49:22;18.90;54.90
17296;DHT22;8766;51.480;6.872;2022-09-23T15:51:51;18.80;54.90
17296;DHT22;8766;51.480;6.872;2022-09-23T15:54:18;18.80;54.90
17296;DHT22;8766;51.480;6.872;2022-09-23T15:56:45;18.80;55.00
17296;DHT22;8766;51.480;6.872;2022-09-23T15:59:16;18.80;55.00
17296;DHT22;8766;51.480;6.872;2022-09-23T16:01:43;18.70;55.00
17296;DHT22;8766;51.480;6.872;2022-09-23T16:04:11;18.70;55.10
17296;DHT22;8766;51.480;6.872;2022-09-23T16:06:40;18.70;55.10
17296;DHT22;8766;51.480;6.872;2022-09-23T16:09:07;18.60;55.10
17296;DHT22;8766;51.480;6.872;2022-09-23T16:11:35;18.60;55.10
17296;DHT22;8766;51.480;6.872;2022-09-23T16:14:02;18.60;55.20
17296;DHT22;8766;51.480;6.872;2022-09-23T16:16:31;18.60;55.20
17296;DHT22;8766;51.480;6.872;2022-09-23T16:18:58;18.60;55.30
17296;DHT22;8766;51.480;6.872;2022-09-23T16:21:25;18.60;55.30
17296;DHT22;8766;51.480;6.872;2022-09-23T16:23:54;18.50;55.30
17296;DHT22;8766;51.480;6.872;2022-09-23T16:26:22;18.50;55.30